This is the latest recevied weather packets stored in our database for station/object VU3KEB-13. If no packets are shown the sender has not sent any weather packets the latest 10 day(s).
| Time | Temp. | Humidity | Pressure | Rain* | Wind** | Luminosity | Snow |
|---|---|---|---|---|---|---|---|
| 1788169088 | 29.44° C | 52% | 1020.6 hPa | - | - | - | - |
| 1788167874 | 29.44° C | 52% | 1020.6 hPa | - | - | - | - |
| 1788166659 | 29.44° C | 52% | 1021 hPa | - | - | - | - |
| 1788165442 | 29.44° C | 52% | 1021 hPa | - | - | - | - |
| 1788164227 | 28.89° C | 52% | 1021 hPa | - | - | - | - |
| 1788163009 | 28.33° C | 53% | 1021.9 hPa | - | - | - | - |
| 1788161794 | 28.33° C | 53% | 1021.9 hPa | - | - | - | - |
| 1788160580 | 28.33° C | 53% | 1021.9 hPa | - | - | - | - |
| 1788159365 | 27.78° C | 55% | 1023 hPa | - | - | - | - |
| 1788158147 | 28.33° C | 51% | 1023.5 hPa | - | - | - | - |
| 1788156933 | 27.78° C | 51% | 1023.5 hPa | - | - | - | - |
| 1788155717 | 27.22° C | 55% | 1024.3 hPa | - | - | - | - |
| 1788154499 | 27.22° C | 55% | 1024.3 hPa | - | - | - | - |
| 1788153281 | 26.11° C | 60% | 1024.6 hPa | - | - | - | - |
| 1788152067 | 25.56° C | 60% | 1024.6 hPa | - | - | - | - |
| 1788150847 | 25.56° C | 60% | 1024.6 hPa | - | - | - | - |
| 1788149625 | 24.44° C | 70% | 1024.5 hPa | - | - | - | - |
| 1788009094 | 23.33° C | 80% | 1021.2 hPa | - | - | - | - |
| 1788007878 | 23.33° C | 80% | 1021.2 hPa | - | - | - | - |
| 1788006663 | 22.78° C | 80% | 1021.2 hPa | - | - | - | - |
| 1788005449 | 26.11° C | 64% | 1020.8 hPa | - | - | - | - |
| 1788003019 | 25.56° C | 64% | 1020.8 hPa | - | - | - | - |
| 1788001806 | 25.56° C | 72% | 1020.6 hPa | - | - | - | - |
| 1788000591 | 26.67° C | 72% | 1020.6 hPa | - | - | - | - |
| 1787999377 | 28.33° C | 72% | 1020.6 hPa | - | - | - | - |
* Rain since midnight (hover to see other rain measurements)
** Current wind speed in m/s (hover to see current wind gust speed)